sensor_id;sensor_type;location;lat;lon;timestamp;temperature;humidity
17565;DHT22;62994;52.126;5.596;2023-04-30T00:02:20;12.10;99.90
17565;DHT22;62994;52.126;5.596;2023-04-30T00:04:47;12.10;99.90
17565;DHT22;62994;52.126;5.596;2023-04-30T00:07:14;12.10;99.90
17565;DHT22;62994;52.126;5.596;2023-04-30T00:09:41;12.00;99.90
17565;DHT22;62994;52.126;5.596;2023-04-30T00:12:08;12.00;99.90
17565;DHT22;62994;52.126;5.596;2023-04-30T00:14:36;12.00;99.90
17565;DHT22;62994;52.126;5.596;2023-04-30T00:17:04;12.00;99.90
17565;DHT22;62994;52.126;5.596;2023-04-30T00:19:31;12.00;99.90
17565;DHT22;62994;52.126;5.596;2023-04-30T00:21:58;11.90;99.90
17565;DHT22;62994;52.126;5.596;2023-04-30T00:24:26;11.90;99.90
17565;DHT22;62994;52.126;5.596;2023-04-30T00:26:53;11.80;99.90
17565;DHT22;62994;52.126;5.596;2023-04-30T00:29:20;11.70;99.90
17565;DHT22;62994;52.126;5.596;2023-04-30T00:31:47;11.70;99.90
17565;DHT22;62994;52.126;5.596;2023-04-30T00:34:15;11.70;99.90
17565;DHT22;62994;52.126;5.596;2023-04-30T00:36:42;11.60;99.90
17565;DHT22;62994;52.126;5.596;2023-04-30T00:39:09;11.60;99.90
17565;DHT22;62994;52.126;5.596;2023-04-30T00:41:37;11.60;99.90
17565;DHT22;62994;52.126;5.596;2023-04-30T00:44:05;11.60;99.90
17565;DHT22;62994;52.126;5.596;2023-04-30T00:46:32;11.50;99.90
17565;DHT22;62994;52.126;5.596;2023-04-30T00:48:59;11.50;99.90
17565;DHT22;62994;52.126;5.596;2023-04-30T00:51:31;11.50;99.90
17565;DHT22;62994;52.126;5.596;2023-04-30T00:54:00;11.40;99.90
17565;DHT22;62994;52.126;5.596;2023-04-30T00:56:28;11.40;99.90
17565;DHT22;62994;52.126;5.596;2023-04-30T00:58:56;11.40;99.90
17565;DHT22;62994;52.126;5.596;2023-04-30T01:01:23;11.30;99.90
17565;DHT22;62994;52.126;5.596;2023-04-30T01:03:51;11.30;99.90
17565;DHT22;62994;52.126;5.596;2023-04-30T01:06:18;11.30;99.90
17565;DHT22;62994;52.126;5.596;2023-04-30T01:08:47;11.30;99.90
17565;DHT22;62994;52.126;5.596;2023-04-30T01:11:20;11.20;99.90
17565;DHT22;62994;52.126;5.596;2023-04-30T01:13:57;11.20;99.90
17565;DHT22;62994;52.126;5.596;2023-04-30T01:16:30;11.20;99.90
17565;DHT22;62994;52.126;5.596;2023-04-30T01:19:04;11.20;99.90
17565;DHT22;62994;52.126;5.596;2023-04-30T01:21:38;11.10;99.90
17565;DHT22;62994;52.126;5.596;2023-04-30T01:24:37;11.10;99.90
17565;DHT22;62994;52.126;5.596;2023-04-30T01:27:22;11.10;99.90
17565;DHT22;62994;52.126;5.596;2023-04-30T01:29:51;11.10;99.90
17565;DHT22;62994;52.126;5.596;2023-04-30T01:32:20;11.00;99.90
17565;DHT22;62994;52.126;5.596;2023-04-30T01:34:47;11.00;99.90
17565;DHT22;62994;52.126;5.596;2023-04-30T01:37:20;11.00;99.90
17565;DHT22;62994;52.126;5.596;2023-04-30T01:40:00;11.00;99.90
17565;DHT22;62994;52.126;5.596;2023-04-30T01:42:32;10.90;99.90
17565;DHT22;62994;52.126;5.596;2023-04-30T01:45:17;10.90;99.90
17565;DHT22;62994;52.126;5.596;2023-04-30T01:47:52;10.90;99.90
17565;DHT22;62994;52.126;5.596;2023-04-30T01:50:27;10.90;99.90
17565;DHT22;62994;52.126;5.596;2023-04-30T01:52:58;10.80;99.90
17565;DHT22;62994;52.126;5.596;2023-04-30T01:55:29;10.80;99.90
17565;DHT22;62994;52.126;5.596;2023-04-30T01:57:59;10.80;99.90
17565;DHT22;62994;52.126;5.596;2023-04-30T02:00:28;10.80;99.90
17565;DHT22;62994;52.126;5.596;2023-04-30T02:02:56;10.80;99.90
17565;DHT22;62994;52.126;5.596;2023-04-30T02:05:23;10.80;99.90
17565;DHT22;62994;52.126;5.596;2023-04-30T02:07:51;10.70;99.90
17565;DHT22;62994;52.126;5.596;2023-04-30T02:10:22;10.70;99.90
17565;DHT22;62994;52.126;5.596;2023-04-30T02:12:49;10.70;99.90
17565;DHT22;62994;52.126;5.596;2023-04-30T02:15:16;10.70;99.90
17565;DHT22;62994;52.126;5.596;2023-04-30T02:17:45;10.70;99.90
17565;DHT22;62994;52.126;5.596;2023-04-30T02:20:12;10.70;99.90
17565;DHT22;62994;52.126;5.596;2023-04-30T02:22:39;10.60;99.90
17565;DHT22;62994;52.126;5.596;2023-04-30T02:25:06;10.60;99.90
17565;DHT22;62994;52.126;5.596;2023-04-30T02:27:33;10.60;99.90
17565;DHT22;62994;52.126;5.596;2023-04-30T02:30:00;10.60;99.90
17565;DHT22;62994;52.126;5.596;2023-04-30T02:32:28;10.50;99.90
17565;DHT22;62994;52.126;5.596;2023-04-30T02:34:57;10.50;99.90
17565;DHT22;62994;52.126;5.596;2023-04-30T02:37:24;10.40;99.90
17565;DHT22;62994;52.126;5.596;2023-04-30T02:39:51;10.40;99.90
17565;DHT22;62994;52.126;5.596;2023-04-30T02:42:18;10.30;99.90
17565;DHT22;62994;52.126;5.596;2023-04-30T02:44:45;10.30;99.90
17565;DHT22;62994;52.126;5.596;2023-04-30T02:47:12;10.30;99.90
17565;DHT22;62994;52.126;5.596;2023-04-30T02:49:39;10.20;99.90
17565;DHT22;62994;52.126;5.596;2023-04-30T02:52:08;10.20;99.90
17565;DHT22;62994;52.126;5.596;2023-04-30T02:54:35;10.10;99.90
17565;DHT22;62994;52.126;5.596;2023-04-30T02:57:02;10.10;99.90
17565;DHT22;62994;52.126;5.596;2023-04-30T02:59:29;10.00;99.90
17565;DHT22;62994;52.126;5.596;2023-04-30T03:01:56;10.00;99.90
17565;DHT22;62994;52.126;5.596;2023-04-30T03:04:23;9.90;99.90
17565;DHT22;62994;52.126;5.596;2023-04-30T03:06:50;9.90;99.90
17565;DHT22;62994;52.126;5.596;2023-04-30T03:09:19;9.80;99.90
17565;DHT22;62994;52.126;5.596;2023-04-30T03:11:46;9.80;99.90
17565;DHT22;62994;52.126;5.596;2023-04-30T03:14:13;9.80;99.90
17565;DHT22;62994;52.126;5.596;2023-04-30T03:16:40;9.80;99.90
17565;DHT22;62994;52.126;5.596;2023-04-30T03:19:07;9.70;99.90
17565;DHT22;62994;52.126;5.596;2023-04-30T03:21:34;9.70;99.90
17565;DHT22;62994;52.126;5.596;2023-04-30T03:24:01;9.70;99.90
17565;DHT22;62994;52.126;5.596;2023-04-30T03:26:30;9.60;99.90
17565;DHT22;62994;52.126;5.596;2023-04-30T03:28:56;9.60;99.90
17565;DHT22;62994;52.126;5.596;2023-04-30T03:31:25;9.60;99.90
17565;DHT22;62994;52.126;5.596;2023-04-30T03:33:52;9.60;99.90
17565;DHT22;62994;52.126;5.596;2023-04-30T03:36:19;9.60;99.90
17565;DHT22;62994;52.126;5.596;2023-04-30T03:38:45;9.60;99.90
17565;DHT22;62994;52.126;5.596;2023-04-30T03:41:12;9.50;99.90
17565;DHT22;62994;52.126;5.596;2023-04-30T03:43:41;9.50;99.90
17565;DHT22;62994;52.126;5.596;2023-04-30T03:46:08;9.50;99.90
17565;DHT22;62994;52.126;5.596;2023-04-30T03:48:35;9.50;99.90
17565;DHT22;62994;52.126;5.596;2023-04-30T03:51:02;9.50;99.90
17565;DHT22;62994;52.126;5.596;2023-04-30T03:53:29;9.50;99.90
17565;DHT22;62994;52.126;5.596;2023-04-30T03:55:56;9.40;99.90
17565;DHT22;62994;52.126;5.596;2023-04-30T03:58:23;9.40;99.90
17565;DHT22;62994;52.126;5.596;2023-04-30T04:00:51;9.40;99.90
17565;DHT22;62994;52.126;5.596;2023-04-30T04:03:18;9.30;99.90
17565;DHT22;62994;52.126;5.596;2023-04-30T04:05:46;9.30;99.90
17565;DHT22;62994;52.126;5.596;2023-04-30T04:08:13;9.30;99.90
17565;DHT22;62994;52.126;5.596;2023-04-30T04:10:40;9.20;99.90
17565;DHT22;62994;52.126;5.596;2023-04-30T04:13:07;9.20;99.90
17565;DHT22;62994;52.126;5.596;2023-04-30T04:15:34;9.20;99.90
17565;DHT22;62994;52.126;5.596;2023-04-30T04:18:02;9.20;99.90
17565;DHT22;62994;52.126;5.596;2023-04-30T04:20:31;9.20;99.90
17565;DHT22;62994;52.126;5.596;2023-04-30T04:22:58;9.20;99.90
17565;DHT22;62994;52.126;5.596;2023-04-30T04:25:25;9.10;99.90
17565;DHT22;62994;52.126;5.596;2023-04-30T04:27:53;9.10;99.90
17565;DHT22;62994;52.126;5.596;2023-04-30T04:30:20;9.10;99.90
17565;DHT22;62994;52.126;5.596;2023-04-30T04:32:47;9.10;99.90
17565;DHT22;62994;52.126;5.596;2023-04-30T04:35:16;9.00;99.90
17565;DHT22;62994;52.126;5.596;2023-04-30T04:37:45;9.10;99.90
17565;DHT22;62994;52.126;5.596;2023-04-30T04:40:12;9.00;99.90
17565;DHT22;62994;52.126;5.596;2023-04-30T04:42:39;9.00;99.90
17565;DHT22;62994;52.126;5.596;2023-04-30T04:45:07;9.00;99.90
17565;DHT22;62994;52.126;5.596;2023-04-30T04:47:34;8.90;99.90
17565;DHT22;62994;52.126;5.596;2023-04-30T04:50:02;9.00;99.90
17565;DHT22;62994;52.126;5.596;2023-04-30T04:52:30;8.90;99.90
17565;DHT22;62994;52.126;5.596;2023-04-30T04:54:57;9.00;99.90
17565;DHT22;62994;52.126;5.596;2023-04-30T04:57:24;8.90;99.90
17565;DHT22;62994;52.126;5.596;2023-04-30T04:59:51;8.90;99.90
17565;DHT22;62994;52.126;5.596;2023-04-30T05:02:18;9.00;99.90
17565;DHT22;62994;52.126;5.596;2023-04-30T05:04:45;8.90;99.90
17565;DHT22;62994;52.126;5.596;2023-04-30T05:07:15;8.90;99.90
17565;DHT22;62994;52.126;5.596;2023-04-30T05:09:44;8.90;99.90
17565;DHT22;62994;52.126;5.596;2023-04-30T05:12:11;8.90;99.90
17565;DHT22;62994;52.126;5.596;2023-04-30T05:14:38;8.90;99.90
17565;DHT22;62994;52.126;5.596;2023-04-30T05:17:05;8.90;99.90
17565;DHT22;62994;52.126;5.596;2023-04-30T05:19:33;8.80;99.90
17565;DHT22;62994;52.126;5.596;2023-04-30T05:22:00;8.80;99.90
17565;DHT22;62994;52.126;5.596;2023-04-30T05:24:28;8.70;99.90
17565;DHT22;62994;52.126;5.596;2023-04-30T05:26:56;8.70;99.90
17565;DHT22;62994;52.126;5.596;2023-04-30T05:29:23;8.60;99.90
17565;DHT22;62994;52.126;5.596;2023-04-30T05:31:50;8.60;99.90
17565;DHT22;62994;52.126;5.596;2023-04-30T05:34:17;8.60;99.90
17565;DHT22;62994;52.126;5.596;2023-04-30T05:36:44;8.50;99.90
17565;DHT22;62994;52.126;5.596;2023-04-30T05:39:11;8.60;99.90
17565;DHT22;62994;52.126;5.596;2023-04-30T05:41:38;8.60;99.90
17565;DHT22;62994;52.126;5.596;2023-04-30T05:44:07;8.60;99.90
17565;DHT22;62994;52.126;5.596;2023-04-30T05:46:34;8.60;99.90
17565;DHT22;62994;52.126;5.596;2023-04-30T05:49:01;8.50;99.90
17565;DHT22;62994;52.126;5.596;2023-04-30T05:51:28;8.50;99.90
17565;DHT22;62994;52.126;5.596;2023-04-30T05:53:55;8.40;99.90
17565;DHT22;62994;52.126;5.596;2023-04-30T05:56:23;8.50;99.90
17565;DHT22;62994;52.126;5.596;2023-04-30T05:58:50;8.50;99.90
17565;DHT22;62994;52.126;5.596;2023-04-30T06:01:19;8.50;99.90
17565;DHT22;62994;52.126;5.596;2023-04-30T06:03:46;8.50;99.90
17565;DHT22;62994;52.126;5.596;2023-04-30T06:06:13;8.50;99.90
17565;DHT22;62994;52.126;5.596;2023-04-30T06:08:40;8.50;99.90
17565;DHT22;62994;52.126;5.596;2023-04-30T06:11:10;8.60;99.90
17565;DHT22;62994;52.126;5.596;2023-04-30T06:13:38;8.50;99.90
17565;DHT22;62994;52.126;5.596;2023-04-30T06:16:05;8.50;99.90
17565;DHT22;62994;52.126;5.596;2023-04-30T06:18:34;8.60;99.90
17565;DHT22;62994;52.126;5.596;2023-04-30T06:21:01;8.70;99.90
17565;DHT22;62994;52.126;5.596;2023-04-30T06:23:29;8.70;99.90
17565;DHT22;62994;52.126;5.596;2023-04-30T06:25:56;8.80;99.90
17565;DHT22;62994;52.126;5.596;2023-04-30T06:28:23;8.80;99.90
17565;DHT22;62994;52.126;5.596;2023-04-30T06:30:51;8.90;99.90
17565;DHT22;62994;52.126;5.596;2023-04-30T06:33:19;9.00;99.90
17565;DHT22;62994;52.126;5.596;2023-04-30T06:35:48;9.00;99.90
17565;DHT22;62994;52.126;5.596;2023-04-30T06:38:19;9.10;99.90
17565;DHT22;62994;52.126;5.596;2023-04-30T06:40:46;9.20;99.90
17565;DHT22;62994;52.126;5.596;2023-04-30T06:43:15;9.30;99.90
17565;DHT22;62994;52.126;5.596;2023-04-30T06:45:42;9.40;99.90
17565;DHT22;62994;52.126;5.596;2023-04-30T06:48:09;9.50;99.90
17565;DHT22;62994;52.126;5.596;2023-04-30T06:50:36;9.60;99.90
17565;DHT22;62994;52.126;5.596;2023-04-30T06:53:11;9.60;99.90
17565;DHT22;62994;52.126;5.596;2023-04-30T06:55:38;9.70;99.90
17565;DHT22;62994;52.126;5.596;2023-04-30T06:58:06;9.80;99.90
17565;DHT22;62994;52.126;5.596;2023-04-30T07:00:33;10.00;99.90
17565;DHT22;62994;52.126;5.596;2023-04-30T07:03:00;10.00;99.90
17565;DHT22;62994;52.126;5.596;2023-04-30T07:05:29;10.10;99.90
17565;DHT22;62994;52.126;5.596;2023-04-30T07:07:56;10.20;99.90
17565;DHT22;62994;52.126;5.596;2023-04-30T07:10:25;10.30;99.90
17565;DHT22;62994;52.126;5.596;2023-04-30T07:12:53;10.50;99.90
17565;DHT22;62994;52.126;5.596;2023-04-30T07:15:20;10.50;99.90
17565;DHT22;62994;52.126;5.596;2023-04-30T07:17:48;10.60;99.90
17565;DHT22;62994;52.126;5.596;2023-04-30T07:20:15;10.70;99.90
17565;DHT22;62994;52.126;5.596;2023-04-30T07:22:43;10.80;99.90
17565;DHT22;62994;52.126;5.596;2023-04-30T07:25:10;10.80;99.90
17565;DHT22;62994;52.126;5.596;2023-04-30T07:27:39;10.90;99.90
17565;DHT22;62994;52.126;5.596;2023-04-30T07:30:08;11.10;99.90
17565;DHT22;62994;52.126;5.596;2023-04-30T07:32:36;11.10;99.90
17565;DHT22;62994;52.126;5.596;2023-04-30T07:35:06;11.20;99.90
17565;DHT22;62994;52.126;5.596;2023-04-30T07:37:33;11.40;99.90
17565;DHT22;62994;52.126;5.596;2023-04-30T07:40:00;11.40;99.90
17565;DHT22;62994;52.126;5.596;2023-04-30T07:42:29;11.60;99.90
17565;DHT22;62994;52.126;5.596;2023-04-30T07:44:59;11.70;99.90
17565;DHT22;62994;52.126;5.596;2023-04-30T07:47:28;11.80;99.90
17565;DHT22;62994;52.126;5.596;2023-04-30T07:49:57;11.90;99.90
17565;DHT22;62994;52.126;5.596;2023-04-30T07:52:24;11.90;99.90
17565;DHT22;62994;52.126;5.596;2023-04-30T07:54:52;12.00;99.90
17565;DHT22;62994;52.126;5.596;2023-04-30T07:57:19;12.20;99.90
17565;DHT22;62994;52.126;5.596;2023-04-30T07:59:47;12.30;99.90
17565;DHT22;62994;52.126;5.596;2023-04-30T08:02:15;12.30;99.90
17565;DHT22;62994;52.126;5.596;2023-04-30T08:04:42;12.50;99.90
17565;DHT22;62994;52.126;5.596;2023-04-30T08:07:10;12.50;99.90
17565;DHT22;62994;52.126;5.596;2023-04-30T08:09:37;12.60;99.90
17565;DHT22;62994;52.126;5.596;2023-04-30T08:12:05;12.80;99.90
17565;DHT22;62994;52.126;5.596;2023-04-30T08:14:32;12.90;99.90
17565;DHT22;62994;52.126;5.596;2023-04-30T08:16:59;13.00;99.90
17565;DHT22;62994;52.126;5.596;2023-04-30T08:19:29;13.10;99.90
17565;DHT22;62994;52.126;5.596;2023-04-30T08:21:58;13.20;99.90
17565;DHT22;62994;52.126;5.596;2023-04-30T08:24:25;13.30;99.90
17565;DHT22;62994;52.126;5.596;2023-04-30T08:26:53;13.50;99.90
17565;DHT22;62994;52.126;5.596;2023-04-30T08:29:20;13.60;99.90
17565;DHT22;62994;52.126;5.596;2023-04-30T08:31:47;13.60;99.90
17565;DHT22;62994;52.126;5.596;2023-04-30T08:34:15;13.60;99.90
17565;DHT22;62994;52.126;5.596;2023-04-30T08:36:44;13.70;99.90
17565;DHT22;62994;52.126;5.596;2023-04-30T08:39:12;13.70;99.90
17565;DHT22;62994;52.126;5.596;2023-04-30T08:41:41;13.90;99.90
17565;DHT22;62994;52.126;5.596;2023-04-30T08:44:12;14.00;99.90
17565;DHT22;62994;52.126;5.596;2023-04-30T08:46:41;14.10;99.90
17565;DHT22;62994;52.126;5.596;2023-04-30T08:49:09;14.20;99.90
17565;DHT22;62994;52.126;5.596;2023-04-30T08:51:36;14.40;99.90
17565;DHT22;62994;52.126;5.596;2023-04-30T08:54:05;14.50;99.90
17565;DHT22;62994;52.126;5.596;2023-04-30T08:56:32;14.60;99.90
17565;DHT22;62994;52.126;5.596;2023-04-30T08:58:59;14.70;99.90
17565;DHT22;62994;52.126;5.596;2023-04-30T09:01:27;14.90;99.90
17565;DHT22;62994;52.126;5.596;2023-04-30T09:03:55;15.00;99.90
17565;DHT22;62994;52.126;5.596;2023-04-30T09:06:22;15.10;99.90
17565;DHT22;62994;52.126;5.596;2023-04-30T09:08:49;15.30;99.90
17565;DHT22;62994;52.126;5.596;2023-04-30T09:11:24;15.40;99.90
17565;DHT22;62994;52.126;5.596;2023-04-30T09:13:53;15.30;99.90
17565;DHT22;62994;52.126;5.596;2023-04-30T09:16:22;15.40;99.90
17565;DHT22;62994;52.126;5.596;2023-04-30T09:18:49;15.40;99.90
17565;DHT22;62994;52.126;5.596;2023-04-30T09:21:28;15.60;99.90
17565;DHT22;62994;52.126;5.596;2023-04-30T09:23:56;15.80;99.90
17565;DHT22;62994;52.126;5.596;2023-04-30T09:26:31;15.90;99.90
17565;DHT22;62994;52.126;5.596;2023-04-30T09:28:58;15.90;99.90
17565;DHT22;62994;52.126;5.596;2023-04-30T09:31:26;16.00;99.90
17565;DHT22;62994;52.126;5.596;2023-04-30T09:33:54;16.10;99.90
17565;DHT22;62994;52.126;5.596;2023-04-30T09:36:21;16.30;99.90
17565;DHT22;62994;52.126;5.596;2023-04-30T09:38:48;16.40;99.90
17565;DHT22;62994;52.126;5.596;2023-04-30T09:41:22;16.40;99.90
17565;DHT22;62994;52.126;5.596;2023-04-30T09:43:52;16.60;99.90
17565;DHT22;62994;52.126;5.596;2023-04-30T09:46:20;16.60;99.90
17565;DHT22;62994;52.126;5.596;2023-04-30T09:48:55;16.60;99.90
17565;DHT22;62994;52.126;5.596;2023-04-30T09:51:23;16.70;99.90
17565;DHT22;62994;52.126;5.596;2023-04-30T09:53:52;16.80;99.90
17565;DHT22;62994;52.126;5.596;2023-04-30T09:56:20;16.90;99.90
17565;DHT22;62994;52.126;5.596;2023-04-30T09:58:50;17.10;99.90
17565;DHT22;62994;52.126;5.596;2023-04-30T10:01:19;17.20;99.90
17565;DHT22;62994;52.126;5.596;2023-04-30T10:03:48;17.40;99.90
17565;DHT22;62994;52.126;5.596;2023-04-30T10:06:15;17.40;99.90
17565;DHT22;62994;52.126;5.596;2023-04-30T10:08:47;17.50;99.90
17565;DHT22;62994;52.126;5.596;2023-04-30T10:11:17;17.60;99.90
17565;DHT22;62994;52.126;5.596;2023-04-30T10:13:50;17.70;99.90
17565;DHT22;62994;52.126;5.596;2023-04-30T10:16:26;17.80;99.90
17565;DHT22;62994;52.126;5.596;2023-04-30T10:18:59;18.00;99.90
17565;DHT22;62994;52.126;5.596;2023-04-30T10:21:29;18.00;99.90
17565;DHT22;62994;52.126;5.596;2023-04-30T10:23:57;18.20;99.90
17565;DHT22;62994;52.126;5.596;2023-04-30T10:26:24;18.30;99.90
17565;DHT22;62994;52.126;5.596;2023-04-30T10:28:52;18.30;99.90
17565;DHT22;62994;52.126;5.596;2023-04-30T10:31:22;18.40;99.90
17565;DHT22;62994;52.126;5.596;2023-04-30T10:34:08;18.60;99.90
17565;DHT22;62994;52.126;5.596;2023-04-30T10:36:41;18.70;99.90
17565;DHT22;62994;52.126;5.596;2023-04-30T10:39:10;19.00;99.90
17565;DHT22;62994;52.126;5.596;2023-04-30T10:41:37;19.10;99.90
17565;DHT22;62994;52.126;5.596;2023-04-30T10:44:07;19.10;99.90
17565;DHT22;62994;52.126;5.596;2023-04-30T10:46:35;19.30;99.90
17565;DHT22;62994;52.126;5.596;2023-04-30T10:49:02;19.50;99.90
17565;DHT22;62994;52.126;5.596;2023-04-30T10:51:49;19.70;99.90
17565;DHT22;62994;52.126;5.596;2023-04-30T10:54:24;19.50;99.90
17565;DHT22;62994;52.126;5.596;2023-04-30T10:56:52;19.60;99.90
17565;DHT22;62994;52.126;5.596;2023-04-30T10:59:21;19.80;99.90
17565;DHT22;62994;52.126;5.596;2023-04-30T11:01:58;20.10;99.90
17565;DHT22;62994;52.126;5.596;2023-04-30T11:04:25;20.20;99.90
17565;DHT22;62994;52.126;5.596;2023-04-30T11:07:10;20.40;99.90
17565;DHT22;62994;52.126;5.596;2023-04-30T11:09:41;20.30;99.90
17565;DHT22;62994;52.126;5.596;2023-04-30T11:12:12;20.40;99.90
17565;DHT22;62994;52.126;5.596;2023-04-30T11:14:40;20.50;99.90
17565;DHT22;62994;52.126;5.596;2023-04-30T11:17:11;20.60;99.90
17565;DHT22;62994;52.126;5.596;2023-04-30T11:19:48;20.60;99.90
17565;DHT22;62994;52.126;5.596;2023-04-30T11:22:21;20.80;99.90
17565;DHT22;62994;52.126;5.596;2023-04-30T11:24:50;20.80;99.90
17565;DHT22;62994;52.126;5.596;2023-04-30T11:27:19;20.60;99.90
17565;DHT22;62994;52.126;5.596;2023-04-30T11:29:47;20.70;99.90
17565;DHT22;62994;52.126;5.596;2023-04-30T11:32:17;20.80;99.90
17565;DHT22;62994;52.126;5.596;2023-04-30T11:34:44;20.90;99.90
17565;DHT22;62994;52.126;5.596;2023-04-30T11:37:12;21.10;99.90
17565;DHT22;62994;52.126;5.596;2023-04-30T11:39:41;21.20;99.90
17565;DHT22;62994;52.126;5.596;2023-04-30T11:42:08;21.30;99.90
17565;DHT22;62994;52.126;5.596;2023-04-30T11:44:35;21.40;99.90
17565;DHT22;62994;52.126;5.596;2023-04-30T11:47:03;21.30;99.90
17565;DHT22;62994;52.126;5.596;2023-04-30T11:49:32;21.50;99.90
17565;DHT22;62994;52.126;5.596;2023-04-30T11:51:59;21.60;99.90
17565;DHT22;62994;52.126;5.596;2023-04-30T11:54:29;21.60;99.90
17565;DHT22;62994;52.126;5.596;2023-04-30T11:56:56;21.70;99.90
17565;DHT22;62994;52.126;5.596;2023-04-30T11:59:29;21.90;99.90
17565;DHT22;62994;52.126;5.596;2023-04-30T12:01:56;22.10;99.90
17565;DHT22;62994;52.126;5.596;2023-04-30T12:04:23;22.10;99.90
17565;DHT22;62994;52.126;5.596;2023-04-30T12:06:52;22.20;99.90
17565;DHT22;62994;52.126;5.596;2023-04-30T12:09:19;22.40;99.90
17565;DHT22;62994;52.126;5.596;2023-04-30T12:11:46;22.70;99.90
17565;DHT22;62994;52.126;5.596;2023-04-30T12:14:14;22.90;99.90
17565;DHT22;62994;52.126;5.596;2023-04-30T12:16:42;22.90;99.90
17565;DHT22;62994;52.126;5.596;2023-04-30T12:19:13;23.00;99.90
17565;DHT22;62994;52.126;5.596;2023-04-30T12:21:42;23.00;99.90
17565;DHT22;62994;52.126;5.596;2023-04-30T12:24:13;23.20;99.90
17565;DHT22;62994;52.126;5.596;2023-04-30T12:26:41;23.40;99.90
17565;DHT22;62994;52.126;5.596;2023-04-30T12:29:09;23.50;99.90
17565;DHT22;62994;52.126;5.596;2023-04-30T12:31:36;23.50;99.90
17565;DHT22;62994;52.126;5.596;2023-04-30T12:34:04;23.30;99.90
17565;DHT22;62994;52.126;5.596;2023-04-30T12:36:33;23.10;99.90
17565;DHT22;62994;52.126;5.596;2023-04-30T12:39:08;23.10;99.90
17565;DHT22;62994;52.126;5.596;2023-04-30T12:41:41;23.30;99.90
17565;DHT22;62994;52.126;5.596;2023-04-30T12:44:15;23.50;99.90
17565;DHT22;62994;52.126;5.596;2023-04-30T12:46:42;23.50;99.90
17565;DHT22;62994;52.126;5.596;2023-04-30T12:49:10;23.40;99.90
17565;DHT22;62994;52.126;5.596;2023-04-30T12:51:41;23.50;99.90
17565;DHT22;62994;52.126;5.596;2023-04-30T12:54:08;23.50;99.90
17565;DHT22;62994;52.126;5.596;2023-04-30T12:56:35;23.60;99.90
17565;DHT22;62994;52.126;5.596;2023-04-30T12:59:14;23.60;99.90
17565;DHT22;62994;52.126;5.596;2023-04-30T13:01:43;23.80;99.90
17565;DHT22;62994;52.126;5.596;2023-04-30T13:04:11;23.90;99.90
17565;DHT22;62994;52.126;5.596;2023-04-30T13:06:38;24.00;99.90
17565;DHT22;62994;52.126;5.596;2023-04-30T13:09:05;24.00;99.90
17565;DHT22;62994;52.126;5.596;2023-04-30T13:11:32;24.10;99.90
17565;DHT22;62994;52.126;5.596;2023-04-30T13:13:59;24.10;99.90
17565;DHT22;62994;52.126;5.596;2023-04-30T13:16:27;24.30;99.90
17565;DHT22;62994;52.126;5.596;2023-04-30T13:18:55;24.40;99.90
17565;DHT22;62994;52.126;5.596;2023-04-30T13:21:23;24.50;99.90
17565;DHT22;62994;52.126;5.596;2023-04-30T13:23:51;24.50;99.90
17565;DHT22;62994;52.126;5.596;2023-04-30T13:26:18;24.50;99.90
17565;DHT22;62994;52.126;5.596;2023-04-30T13:28:46;24.60;99.90
17565;DHT22;62994;52.126;5.596;2023-04-30T13:31:13;24.70;99.90
17565;DHT22;62994;52.126;5.596;2023-04-30T13:33:42;24.70;99.90
17565;DHT22;62994;52.126;5.596;2023-04-30T13:36:09;24.80;99.90
17565;DHT22;62994;52.126;5.596;2023-04-30T13:38:37;24.90;99.90
17565;DHT22;62994;52.126;5.596;2023-04-30T13:41:04;24.90;99.90
17565;DHT22;62994;52.126;5.596;2023-04-30T13:43:32;25.00;99.90
17565;DHT22;62994;52.126;5.596;2023-04-30T13:45:59;25.00;99.90
17565;DHT22;62994;52.126;5.596;2023-04-30T13:48:26;24.70;99.90
17565;DHT22;62994;52.126;5.596;2023-04-30T13:50:55;24.50;99.90
17565;DHT22;62994;52.126;5.596;2023-04-30T13:53:22;24.30;99.90
17565;DHT22;62994;52.126;5.596;2023-04-30T13:55:50;24.20;99.90
17565;DHT22;62994;52.126;5.596;2023-04-30T13:58:17;24.20;99.90
17565;DHT22;62994;52.126;5.596;2023-04-30T14:00:45;24.10;99.90
17565;DHT22;62994;52.126;5.596;2023-04-30T14:03:12;24.10;99.90
17565;DHT22;62994;52.126;5.596;2023-04-30T14:05:40;24.10;99.90
17565;DHT22;62994;52.126;5.596;2023-04-30T14:08:08;24.10;99.90
17565;DHT22;62994;52.126;5.596;2023-04-30T14:10:37;24.30;99.90
17565;DHT22;62994;52.126;5.596;2023-04-30T14:13:04;24.20;99.90
17565;DHT22;62994;52.126;5.596;2023-04-30T14:15:40;23.90;99.90
17565;DHT22;62994;52.126;5.596;2023-04-30T14:18:07;23.90;99.90
17565;DHT22;62994;52.126;5.596;2023-04-30T14:20:35;23.80;99.90
17565;DHT22;62994;52.126;5.596;2023-04-30T14:23:02;23.70;99.90
17565;DHT22;62994;52.126;5.596;2023-04-30T14:25:31;23.60;99.90
17565;DHT22;62994;52.126;5.596;2023-04-30T14:27:58;23.60;99.90
17565;DHT22;62994;52.126;5.596;2023-04-30T14:30:26;23.40;99.90
17565;DHT22;62994;52.126;5.596;2023-04-30T14:32:53;23.50;99.90
17565;DHT22;62994;52.126;5.596;2023-04-30T14:35:20;23.60;99.90
17565;DHT22;62994;52.126;5.596;2023-04-30T14:37:47;23.80;99.90
17565;DHT22;62994;52.126;5.596;2023-04-30T14:40:14;23.90;99.90
17565;DHT22;62994;52.126;5.596;2023-04-30T14:42:43;23.90;99.90
17565;DHT22;62994;52.126;5.596;2023-04-30T14:45:10;23.90;99.90
17565;DHT22;62994;52.126;5.596;2023-04-30T14:47:37;24.00;99.90
17565;DHT22;62994;52.126;5.596;2023-04-30T14:50:05;24.00;99.90
17565;DHT22;62994;52.126;5.596;2023-04-30T14:52:32;24.10;99.90
17565;DHT22;62994;52.126;5.596;2023-04-30T14:55:00;24.00;99.90
17565;DHT22;62994;52.126;5.596;2023-04-30T14:57:28;23.90;99.90
17565;DHT22;62994;52.126;5.596;2023-04-30T14:59:56;23.80;99.90
17565;DHT22;62994;52.126;5.596;2023-04-30T15:02:25;23.80;99.90
17565;DHT22;62994;52.126;5.596;2023-04-30T15:04:52;23.70;99.90
17565;DHT22;62994;52.126;5.596;2023-04-30T15:07:19;23.80;99.90
17565;DHT22;62994;52.126;5.596;2023-04-30T15:09:47;23.70;99.90
17565;DHT22;62994;52.126;5.596;2023-04-30T15:12:14;23.80;99.90
17565;DHT22;62994;52.126;5.596;2023-04-30T15:14:41;24.00;99.90
17565;DHT22;62994;52.126;5.596;2023-04-30T15:17:11;24.10;99.90
17565;DHT22;62994;52.126;5.596;2023-04-30T15:19:39;23.90;99.90
17565;DHT22;62994;52.126;5.596;2023-04-30T15:22:06;23.90;99.90
17565;DHT22;62994;52.126;5.596;2023-04-30T15:24:34;23.90;99.90
17565;DHT22;62994;52.126;5.596;2023-04-30T15:27:01;23.90;99.90
17565;DHT22;62994;52.126;5.596;2023-04-30T15:29:29;23.80;99.90
17565;DHT22;62994;52.126;5.596;2023-04-30T15:31:56;23.70;99.90
17565;DHT22;62994;52.126;5.596;2023-04-30T15:34:25;23.50;99.90
17565;DHT22;62994;52.126;5.596;2023-04-30T15:36:52;23.40;99.90
17565;DHT22;62994;52.126;5.596;2023-04-30T15:39:19;23.20;99.90
17565;DHT22;62994;52.126;5.596;2023-04-30T15:41:46;23.20;99.90
17565;DHT22;62994;52.126;5.596;2023-04-30T15:44:13;23.20;99.90